sensor_id;sensor_type;location;lat;lon;timestamp;temperature;humidity
19232;DHT22;9750;48.730;10.294;2022-11-20T00:01:24;7.50;99.90
19232;DHT22;9750;48.730;10.294;2022-11-20T00:03:52;7.50;99.90
19232;DHT22;9750;48.730;10.294;2022-11-20T00:06:22;7.50;99.90
19232;DHT22;9750;48.730;10.294;2022-11-20T00:08:50;7.50;99.90
19232;DHT22;9750;48.730;10.294;2022-11-20T00:11:19;7.40;99.90
19232;DHT22;9750;48.730;10.294;2022-11-20T00:13:49;7.40;99.90
19232;DHT22;9750;48.730;10.294;2022-11-20T00:16:18;7.40;99.90
19232;DHT22;9750;48.730;10.294;2022-11-20T00:18:46;7.40;99.90
19232;DHT22;9750;48.730;10.294;2022-11-20T00:21:15;7.40;99.90
19232;DHT22;9750;48.730;10.294;2022-11-20T00:23:45;7.40;99.90
19232;DHT22;9750;48.730;10.294;2022-11-20T00:26:14;7.40;99.90
19232;DHT22;9750;48.730;10.294;2022-11-20T00:28:42;7.40;99.90
19232;DHT22;9750;48.730;10.294;2022-11-20T00:31:11;7.30;99.90
19232;DHT22;9750;48.730;10.294;2022-11-20T00:33:39;7.40;99.90
19232;DHT22;9750;48.730;10.294;2022-11-20T00:36:08;7.40;99.90
19232;DHT22;9750;48.730;10.294;2022-11-20T00:38:36;7.40;99.90
19232;DHT22;9750;48.730;10.294;2022-11-20T00:41:06;7.40;99.90
19232;DHT22;9750;48.730;10.294;2022-11-20T00:43:34;7.30;99.90
19232;DHT22;9750;48.730;10.294;2022-11-20T00:46:03;7.30;99.90
19232;DHT22;9750;48.730;10.294;2022-11-20T00:48:31;7.20;99.90
19232;DHT22;9750;48.730;10.294;2022-11-20T00:50:59;7.30;99.90
19232;DHT22;9750;48.730;10.294;2022-11-20T00:53:27;7.30;99.90
19232;DHT22;9750;48.730;10.294;2022-11-20T00:55:55;7.30;99.90
19232;DHT22;9750;48.730;10.294;2022-11-20T00:58:29;7.30;99.90
19232;DHT22;9750;48.730;10.294;2022-11-20T01:01:00;7.30;99.90
19232;DHT22;9750;48.730;10.294;2022-11-20T01:03:30;7.20;99.90
19232;DHT22;9750;48.730;10.294;2022-11-20T01:06:00;7.30;99.90
19232;DHT22;9750;48.730;10.294;2022-11-20T01:08:30;7.30;99.90
19232;DHT22;9750;48.730;10.294;2022-11-20T01:11:00;7.30;99.90
19232;DHT22;9750;48.730;10.294;2022-11-20T01:13:29;7.20;99.90
19232;DHT22;9750;48.730;10.294;2022-11-20T01:16:08;7.30;99.90
19232;DHT22;9750;48.730;10.294;2022-11-20T01:18:37;7.30;99.90
19232;DHT22;9750;48.730;10.294;2022-11-20T01:21:07;7.20;99.90
19232;DHT22;9750;48.730;10.294;2022-11-20T01:23:37;7.30;99.90
19232;DHT22;9750;48.730;10.294;2022-11-20T01:26:05;7.20;99.90
19232;DHT22;9750;48.730;10.294;2022-11-20T01:28:35;7.20;99.90
19232;DHT22;9750;48.730;10.294;2022-11-20T01:31:11;7.20;99.90
19232;DHT22;9750;48.730;10.294;2022-11-20T01:36:43;7.20;99.90
19232;DHT22;9750;48.730;10.294;2022-11-20T01:39:12;7.10;99.90
19232;DHT22;9750;48.730;10.294;2022-11-20T01:41:40;7.10;99.90
19232;DHT22;9750;48.730;10.294;2022-11-20T01:44:53;7.10;99.90
19232;DHT22;9750;48.730;10.294;2022-11-20T01:47:25;7.20;99.90
19232;DHT22;9750;48.730;10.294;2022-11-20T01:49:56;7.20;99.90
19232;DHT22;9750;48.730;10.294;2022-11-20T01:52:27;7.30;99.90
19232;DHT22;9750;48.730;10.294;2022-11-20T01:54:58;7.30;99.90
19232;DHT22;9750;48.730;10.294;2022-11-20T01:57:30;7.30;99.90
19232;DHT22;9750;48.730;10.294;2022-11-20T02:00:04;7.30;99.90
19232;DHT22;9750;48.730;10.294;2022-11-20T02:02:32;7.30;99.90
19232;DHT22;9750;48.730;10.294;2022-11-20T02:05:04;7.30;99.90
19232;DHT22;9750;48.730;10.294;2022-11-20T02:07:36;7.30;99.90
19232;DHT22;9750;48.730;10.294;2022-11-20T02:10:05;7.30;99.90
19232;DHT22;9750;48.730;10.294;2022-11-20T02:12:32;7.30;99.90
19232;DHT22;9750;48.730;10.294;2022-11-20T02:15:18;7.30;99.90
19232;DHT22;9750;48.730;10.294;2022-11-20T02:17:46;7.30;99.90
19232;DHT22;9750;48.730;10.294;2022-11-20T02:20:13;7.30;99.90
19232;DHT22;9750;48.730;10.294;2022-11-20T02:22:48;7.30;99.90
19232;DHT22;9750;48.730;10.294;2022-11-20T02:25:19;7.30;99.90
19232;DHT22;9750;48.730;10.294;2022-11-20T02:27:47;7.20;99.90
19232;DHT22;9750;48.730;10.294;2022-11-20T02:30:14;7.20;99.90
19232;DHT22;9750;48.730;10.294;2022-11-20T02:32:42;7.20;99.90
19232;DHT22;9750;48.730;10.294;2022-11-20T02:38:30;7.20;99.90
19232;DHT22;9750;48.730;10.294;2022-11-20T02:40:59;7.10;99.90
19232;DHT22;9750;48.730;10.294;2022-11-20T02:43:26;7.10;99.90
19232;DHT22;9750;48.730;10.294;2022-11-20T02:45:53;7.10;99.90
19232;DHT22;9750;48.730;10.294;2022-11-20T02:48:21;7.10;99.90
19232;DHT22;9750;48.730;10.294;2022-11-20T02:50:48;7.10;99.90
19232;DHT22;9750;48.730;10.294;2022-11-20T02:53:15;7.10;99.90
19232;DHT22;9750;48.730;10.294;2022-11-20T02:55:43;7.10;99.90
19232;DHT22;9750;48.730;10.294;2022-11-20T02:58:11;7.10;99.90
19232;DHT22;9750;48.730;10.294;2022-11-20T03:00:39;7.10;99.90
19232;DHT22;9750;48.730;10.294;2022-11-20T03:03:06;7.10;99.90
19232;DHT22;9750;48.730;10.294;2022-11-20T03:05:33;7.10;99.90
19232;DHT22;9750;48.730;10.294;2022-11-20T03:08:01;7.10;99.90
19232;DHT22;9750;48.730;10.294;2022-11-20T03:10:28;7.10;99.90
19232;DHT22;9750;48.730;10.294;2022-11-20T03:12:55;7.10;99.90
19232;DHT22;9750;48.730;10.294;2022-11-20T03:15:24;7.10;99.90
19232;DHT22;9750;48.730;10.294;2022-11-20T03:17:53;7.10;99.90
19232;DHT22;9750;48.730;10.294;2022-11-20T03:20:21;7.00;99.90
19232;DHT22;9750;48.730;10.294;2022-11-20T03:22:49;7.00;99.90
19232;DHT22;9750;48.730;10.294;2022-11-20T03:25:16;7.00;99.90
19232;DHT22;9750;48.730;10.294;2022-11-20T03:27:43;7.00;99.90
19232;DHT22;9750;48.730;10.294;2022-11-20T03:30:11;7.00;99.90
19232;DHT22;9750;48.730;10.294;2022-11-20T03:32:40;6.90;99.90
19232;DHT22;9750;48.730;10.294;2022-11-20T03:35:08;6.90;99.90
19232;DHT22;9750;48.730;10.294;2022-11-20T03:37:36;6.90;99.90
19232;DHT22;9750;48.730;10.294;2022-11-20T03:40:04;6.90;99.90
19232;DHT22;9750;48.730;10.294;2022-11-20T03:42:32;6.90;99.90
19232;DHT22;9750;48.730;10.294;2022-11-20T03:45:11;7.00;99.90
19232;DHT22;9750;48.730;10.294;2022-11-20T03:47:41;6.90;99.90
19232;DHT22;9750;48.730;10.294;2022-11-20T03:50:09;6.90;99.90
19232;DHT22;9750;48.730;10.294;2022-11-20T03:52:37;6.90;99.90
19232;DHT22;9750;48.730;10.294;2022-11-20T03:55:05;7.00;99.90
19232;DHT22;9750;48.730;10.294;2022-11-20T03:57:33;7.00;99.90
19232;DHT22;9750;48.730;10.294;2022-11-20T04:00:00;7.00;99.90
19232;DHT22;9750;48.730;10.294;2022-11-20T04:02:27;7.00;99.90
19232;DHT22;9750;48.730;10.294;2022-11-20T04:04:56;7.00;99.90
19232;DHT22;9750;48.730;10.294;2022-11-20T04:07:23;7.10;99.90
19232;DHT22;9750;48.730;10.294;2022-11-20T04:09:50;7.10;99.90
19232;DHT22;9750;48.730;10.294;2022-11-20T04:12:18;7.10;99.90
19232;DHT22;9750;48.730;10.294;2022-11-20T04:14:45;7.10;99.90
19232;DHT22;9750;48.730;10.294;2022-11-20T04:17:12;7.10;99.90
19232;DHT22;9750;48.730;10.294;2022-11-20T04:19:40;7.00;99.90
19232;DHT22;9750;48.730;10.294;2022-11-20T04:22:08;7.00;99.90
19232;DHT22;9750;48.730;10.294;2022-11-20T04:24:37;7.00;99.90
19232;DHT22;9750;48.730;10.294;2022-11-20T04:27:04;7.00;99.90
19232;DHT22;9750;48.730;10.294;2022-11-20T04:29:31;7.00;99.90
19232;DHT22;9750;48.730;10.294;2022-11-20T04:31:59;7.00;99.90
19232;DHT22;9750;48.730;10.294;2022-11-20T04:34:26;6.90;99.90
19232;DHT22;9750;48.730;10.294;2022-11-20T04:36:53;6.90;99.90
19232;DHT22;9750;48.730;10.294;2022-11-20T04:39:22;6.90;99.90
19232;DHT22;9750;48.730;10.294;2022-11-20T04:41:49;6.80;99.90
19232;DHT22;9750;48.730;10.294;2022-11-20T04:44:37;6.80;99.90
19232;DHT22;9750;48.730;10.294;2022-11-20T04:47:04;6.80;99.90
19232;DHT22;9750;48.730;10.294;2022-11-20T04:49:31;6.70;99.90
19232;DHT22;9750;48.730;10.294;2022-11-20T04:51:59;6.70;99.90
19232;DHT22;9750;48.730;10.294;2022-11-20T04:54:28;6.70;99.90
19232;DHT22;9750;48.730;10.294;2022-11-20T04:56:55;6.70;99.90
19232;DHT22;9750;48.730;10.294;2022-11-20T04:59:23;6.70;99.90
19232;DHT22;9750;48.730;10.294;2022-11-20T05:01:50;6.70;99.90
19232;DHT22;9750;48.730;10.294;2022-11-20T05:04:17;6.70;99.90
19232;DHT22;9750;48.730;10.294;2022-11-20T05:06:45;6.60;99.90
19232;DHT22;9750;48.730;10.294;2022-11-20T05:09:12;6.60;99.90
19232;DHT22;9750;48.730;10.294;2022-11-20T05:11:41;6.50;99.90
19232;DHT22;9750;48.730;10.294;2022-11-20T05:14:08;6.50;99.90
19232;DHT22;9750;48.730;10.294;2022-11-20T05:16:36;6.50;99.90
19232;DHT22;9750;48.730;10.294;2022-11-20T05:19:03;6.40;99.90
19232;DHT22;9750;48.730;10.294;2022-11-20T05:21:31;6.40;99.90
19232;DHT22;9750;48.730;10.294;2022-11-20T05:23:58;6.30;99.90
19232;DHT22;9750;48.730;10.294;2022-11-20T05:26:25;6.30;99.90
19232;DHT22;9750;48.730;10.294;2022-11-20T05:28:54;6.30;99.90
19232;DHT22;9750;48.730;10.294;2022-11-20T05:31:24;6.30;99.90
19232;DHT22;9750;48.730;10.294;2022-11-20T05:33:51;6.20;99.90
19232;DHT22;9750;48.730;10.294;2022-11-20T05:36:19;6.20;99.90
19232;DHT22;9750;48.730;10.294;2022-11-20T05:38:46;6.20;99.90
19232;DHT22;9750;48.730;10.294;2022-11-20T05:41:15;6.20;99.90
19232;DHT22;9750;48.730;10.294;2022-11-20T05:44:00;6.20;99.90
19232;DHT22;9750;48.730;10.294;2022-11-20T05:46:28;6.20;99.90
19232;DHT22;9750;48.730;10.294;2022-11-20T05:48:55;6.20;99.90
19232;DHT22;9750;48.730;10.294;2022-11-20T05:51:24;6.30;99.90
19232;DHT22;9750;48.730;10.294;2022-11-20T05:53:51;6.30;99.90
19232;DHT22;9750;48.730;10.294;2022-11-20T05:56:20;6.30;99.90
19232;DHT22;9750;48.730;10.294;2022-11-20T05:58:48;6.30;99.90
19232;DHT22;9750;48.730;10.294;2022-11-20T06:01:18;6.30;99.90
19232;DHT22;9750;48.730;10.294;2022-11-20T06:03:46;6.30;99.90
19232;DHT22;9750;48.730;10.294;2022-11-20T06:06:16;6.40;99.90
19232;DHT22;9750;48.730;10.294;2022-11-20T06:08:44;6.40;99.90
19232;DHT22;9750;48.730;10.294;2022-11-20T06:11:13;6.40;99.90
19232;DHT22;9750;48.730;10.294;2022-11-20T06:13:40;6.40;99.90
19232;DHT22;9750;48.730;10.294;2022-11-20T06:16:08;6.40;99.90
19232;DHT22;9750;48.730;10.294;2022-11-20T06:18:38;6.40;99.90
19232;DHT22;9750;48.730;10.294;2022-11-20T06:21:07;6.40;99.90
19232;DHT22;9750;48.730;10.294;2022-11-20T06:23:35;6.40;99.90
19232;DHT22;9750;48.730;10.294;2022-11-20T06:26:03;6.50;99.90
19232;DHT22;9750;48.730;10.294;2022-11-20T06:28:31;6.50;99.90
19232;DHT22;9750;48.730;10.294;2022-11-20T06:30:59;6.50;99.90
19232;DHT22;9750;48.730;10.294;2022-11-20T06:33:26;6.50;99.90
19232;DHT22;9750;48.730;10.294;2022-11-20T06:35:58;6.50;99.90
19232;DHT22;9750;48.730;10.294;2022-11-20T06:38:25;6.50;99.90
19232;DHT22;9750;48.730;10.294;2022-11-20T06:40:53;6.50;99.90
19232;DHT22;9750;48.730;10.294;2022-11-20T06:43:21;6.40;99.90
19232;DHT22;9750;48.730;10.294;2022-11-20T06:45:52;6.40;99.90
19232;DHT22;9750;48.730;10.294;2022-11-20T06:48:20;6.40;99.90
19232;DHT22;9750;48.730;10.294;2022-11-20T06:50:47;6.50;99.90
19232;DHT22;9750;48.730;10.294;2022-11-20T06:53:16;6.50;99.90
19232;DHT22;9750;48.730;10.294;2022-11-20T06:55:44;6.50;99.90
19232;DHT22;9750;48.730;10.294;2022-11-20T06:58:11;6.50;99.90
19232;DHT22;9750;48.730;10.294;2022-11-20T07:00:39;6.40;99.90
19232;DHT22;9750;48.730;10.294;2022-11-20T07:03:07;6.40;99.90
19232;DHT22;9750;48.730;10.294;2022-11-20T07:05:35;6.40;99.90
19232;DHT22;9750;48.730;10.294;2022-11-20T07:08:04;6.50;99.90
19232;DHT22;9750;48.730;10.294;2022-11-20T07:10:33;6.40;99.90
19232;DHT22;9750;48.730;10.294;2022-11-20T07:13:00;6.50;99.90
19232;DHT22;9750;48.730;10.294;2022-11-20T07:18:50;6.40;99.90
19232;DHT22;9750;48.730;10.294;2022-11-20T07:21:17;6.40;99.90
19232;DHT22;9750;48.730;10.294;2022-11-20T07:23:44;6.40;99.90
19232;DHT22;9750;48.730;10.294;2022-11-20T07:26:13;6.40;99.90
19232;DHT22;9750;48.730;10.294;2022-11-20T07:28:43;6.40;99.90
19232;DHT22;9750;48.730;10.294;2022-11-20T07:31:10;6.50;99.90
19232;DHT22;9750;48.730;10.294;2022-11-20T07:33:38;6.50;99.90
19232;DHT22;9750;48.730;10.294;2022-11-20T07:36:06;6.50;99.90
19232;DHT22;9750;48.730;10.294;2022-11-20T07:38:33;6.40;99.90
19232;DHT22;9750;48.730;10.294;2022-11-20T07:41:01;6.50;99.90
19232;DHT22;9750;48.730;10.294;2022-11-20T07:43:29;6.40;99.90
19232;DHT22;9750;48.730;10.294;2022-11-20T07:45:57;6.50;99.90
19232;DHT22;9750;48.730;10.294;2022-11-20T07:48:25;6.50;99.90
19232;DHT22;9750;48.730;10.294;2022-11-20T07:50:54;6.50;99.90
19232;DHT22;9750;48.730;10.294;2022-11-20T07:53:21;6.50;99.90
19232;DHT22;9750;48.730;10.294;2022-11-20T07:55:49;6.50;99.90
19232;DHT22;9750;48.730;10.294;2022-11-20T07:58:18;6.50;99.90
19232;DHT22;9750;48.730;10.294;2022-11-20T08:00:47;6.50;99.90
19232;DHT22;9750;48.730;10.294;2022-11-20T08:03:14;6.60;99.90
19232;DHT22;9750;48.730;10.294;2022-11-20T08:08:54;6.60;99.90
19232;DHT22;9750;48.730;10.294;2022-11-20T08:11:21;6.60;99.90
19232;DHT22;9750;48.730;10.294;2022-11-20T08:14:05;6.60;99.90
19232;DHT22;9750;48.730;10.294;2022-11-20T08:16:41;6.60;99.90
19232;DHT22;9750;48.730;10.294;2022-11-20T08:19:09;6.60;99.90
19232;DHT22;9750;48.730;10.294;2022-11-20T08:21:36;6.60;99.90
19232;DHT22;9750;48.730;10.294;2022-11-20T08:24:04;6.60;99.90
19232;DHT22;9750;48.730;10.294;2022-11-20T08:26:32;6.60;99.90
19232;DHT22;9750;48.730;10.294;2022-11-20T08:28:59;6.70;99.90
19232;DHT22;9750;48.730;10.294;2022-11-20T08:31:27;6.70;99.90
19232;DHT22;9750;48.730;10.294;2022-11-20T08:33:56;6.70;99.90
19232;DHT22;9750;48.730;10.294;2022-11-20T08:36:24;6.70;99.90
19232;DHT22;9750;48.730;10.294;2022-11-20T08:38:53;6.80;99.90
19232;DHT22;9750;48.730;10.294;2022-11-20T08:41:22;6.80;99.90
19232;DHT22;9750;48.730;10.294;2022-11-20T08:43:54;6.80;99.90
19232;DHT22;9750;48.730;10.294;2022-11-20T08:46:23;6.80;99.90
19232;DHT22;9750;48.730;10.294;2022-11-20T08:48:51;6.80;99.90
19232;DHT22;9750;48.730;10.294;2022-11-20T08:51:21;6.80;99.90
19232;DHT22;9750;48.730;10.294;2022-11-20T08:53:48;6.90;99.90
19232;DHT22;9750;48.730;10.294;2022-11-20T08:56:15;6.90;99.90
19232;DHT22;9750;48.730;10.294;2022-11-20T08:58:43;7.00;99.90
19232;DHT22;9750;48.730;10.294;2022-11-20T09:01:10;6.90;99.90
19232;DHT22;9750;48.730;10.294;2022-11-20T09:03:38;7.00;99.90
19232;DHT22;9750;48.730;10.294;2022-11-20T09:06:06;6.90;99.90
19232;DHT22;9750;48.730;10.294;2022-11-20T09:08:36;6.90;99.90
19232;DHT22;9750;48.730;10.294;2022-11-20T09:11:04;7.00;99.90
19232;DHT22;9750;48.730;10.294;2022-11-20T09:13:32;7.00;99.90
19232;DHT22;9750;48.730;10.294;2022-11-20T09:16:01;7.00;99.90
19232;DHT22;9750;48.730;10.294;2022-11-20T09:18:30;7.10;99.90
19232;DHT22;9750;48.730;10.294;2022-11-20T09:20:59;7.10;99.90
19232;DHT22;9750;48.730;10.294;2022-11-20T09:23:27;7.10;99.90
19232;DHT22;9750;48.730;10.294;2022-11-20T09:25:56;7.20;99.90
19232;DHT22;9750;48.730;10.294;2022-11-20T09:28:25;7.20;99.90
19232;DHT22;9750;48.730;10.294;2022-11-20T09:30:52;7.30;99.90
19232;DHT22;9750;48.730;10.294;2022-11-20T09:33:20;7.40;99.90
19232;DHT22;9750;48.730;10.294;2022-11-20T09:35:47;7.40;99.90
19232;DHT22;9750;48.730;10.294;2022-11-20T09:38:14;7.50;99.90
19232;DHT22;9750;48.730;10.294;2022-11-20T09:40:47;7.60;99.90
19232;DHT22;9750;48.730;10.294;2022-11-20T09:43:20;7.50;99.90
19232;DHT22;9750;48.730;10.294;2022-11-20T09:46:02;7.50;99.90
19232;DHT22;9750;48.730;10.294;2022-11-20T09:48:56;7.50;99.90
19232;DHT22;9750;48.730;10.294;2022-11-20T09:51:39;7.50;99.90
19232;DHT22;9750;48.730;10.294;2022-11-20T09:54:16;7.40;99.90
19232;DHT22;9750;48.730;10.294;2022-11-20T09:56:46;7.40;99.90
19232;DHT22;9750;48.730;10.294;2022-11-20T09:59:26;7.50;99.90
19232;DHT22;9750;48.730;10.294;2022-11-20T10:01:56;7.40;99.90
19232;DHT22;9750;48.730;10.294;2022-11-20T10:04:25;7.50;99.90
19232;DHT22;9750;48.730;10.294;2022-11-20T10:07:03;7.50;99.90
19232;DHT22;9750;48.730;10.294;2022-11-20T10:09:35;7.40;99.90
19232;DHT22;9750;48.730;10.294;2022-11-20T10:12:12;7.40;99.90
19232;DHT22;9750;48.730;10.294;2022-11-20T10:14:54;7.40;99.90
19232;DHT22;9750;48.730;10.294;2022-11-20T10:17:39;7.50;99.90
19232;DHT22;9750;48.730;10.294;2022-11-20T10:20:16;7.50;99.90
19232;DHT22;9750;48.730;10.294;2022-11-20T10:22:56;7.60;99.90
19232;DHT22;9750;48.730;10.294;2022-11-20T10:25:33;7.60;99.90
19232;DHT22;9750;48.730;10.294;2022-11-20T10:28:24;7.60;99.90
19232;DHT22;9750;48.730;10.294;2022-11-20T10:30:59;7.60;99.90
19232;DHT22;9750;48.730;10.294;2022-11-20T10:33:31;7.60;99.90
19232;DHT22;9750;48.730;10.294;2022-11-20T10:36:08;7.70;99.90
19232;DHT22;9750;48.730;10.294;2022-11-20T10:38:40;7.70;99.90
19232;DHT22;9750;48.730;10.294;2022-11-20T10:41:14;7.70;99.90
19232;DHT22;9750;48.730;10.294;2022-11-20T10:43:58;7.70;99.90
19232;DHT22;9750;48.730;10.294;2022-11-20T10:46:35;7.70;99.90
19232;DHT22;9750;48.730;10.294;2022-11-20T10:49:09;7.80;99.90
19232;DHT22;9750;48.730;10.294;2022-11-20T10:51:47;7.70;99.90
19232;DHT22;9750;48.730;10.294;2022-11-20T10:54:22;7.70;99.90
19232;DHT22;9750;48.730;10.294;2022-11-20T10:56:53;7.70;99.90
19232;DHT22;9750;48.730;10.294;2022-11-20T10:59:38;7.70;99.90
19232;DHT22;9750;48.730;10.294;2022-11-20T11:02:20;7.70;99.90
19232;DHT22;9750;48.730;10.294;2022-11-20T11:04:49;7.70;99.90
19232;DHT22;9750;48.730;10.294;2022-11-20T11:07:20;7.70;99.90
19232;DHT22;9750;48.730;10.294;2022-11-20T11:09:52;7.60;99.90
19232;DHT22;9750;48.730;10.294;2022-11-20T11:12:20;7.70;99.90
19232;DHT22;9750;48.730;10.294;2022-11-20T11:14:49;7.70;99.90
19232;DHT22;9750;48.730;10.294;2022-11-20T11:17:26;7.70;99.90
19232;DHT22;9750;48.730;10.294;2022-11-20T11:20:02;7.70;99.90
19232;DHT22;9750;48.730;10.294;2022-11-20T11:22:32;7.80;99.90
19232;DHT22;9750;48.730;10.294;2022-11-20T11:28:22;7.80;99.90
19232;DHT22;9750;48.730;10.294;2022-11-20T11:30:52;7.90;99.90
19232;DHT22;9750;48.730;10.294;2022-11-20T11:33:22;7.90;99.90
19232;DHT22;9750;48.730;10.294;2022-11-20T11:35:51;7.90;99.90
19232;DHT22;9750;48.730;10.294;2022-11-20T11:38:23;7.80;99.90
19232;DHT22;9750;48.730;10.294;2022-11-20T11:40:56;7.80;99.90
19232;DHT22;9750;48.730;10.294;2022-11-20T11:43:26;7.80;99.90
19232;DHT22;9750;48.730;10.294;2022-11-20T11:46:26;7.80;99.90
19232;DHT22;9750;48.730;10.294;2022-11-20T11:49:00;7.60;99.90
19232;DHT22;9750;48.730;10.294;2022-11-20T11:51:36;7.60;99.90
19232;DHT22;9750;48.730;10.294;2022-11-20T11:54:13;7.60;99.90
19232;DHT22;9750;48.730;10.294;2022-11-20T11:56:43;7.50;99.90
19232;DHT22;9750;48.730;10.294;2022-11-20T11:59:15;7.60;99.90
19232;DHT22;9750;48.730;10.294;2022-11-20T12:01:47;7.60;99.90
19232;DHT22;9750;48.730;10.294;2022-11-20T12:04:29;7.60;99.90
19232;DHT22;9750;48.730;10.294;2022-11-20T12:07:03;7.60;99.90
19232;DHT22;9750;48.730;10.294;2022-11-20T12:09:46;7.70;99.90
19232;DHT22;9750;48.730;10.294;2022-11-20T12:12:17;7.70;99.90
19232;DHT22;9750;48.730;10.294;2022-11-20T12:14:47;7.70;99.90
19232;DHT22;9750;48.730;10.294;2022-11-20T12:17:16;7.80;99.90
19232;DHT22;9750;48.730;10.294;2022-11-20T12:19:45;7.70;99.90
19232;DHT22;9750;48.730;10.294;2022-11-20T12:22:22;7.70;99.90
19232;DHT22;9750;48.730;10.294;2022-11-20T12:25:00;7.70;99.90
19232;DHT22;9750;48.730;10.294;2022-11-20T12:27:47;7.70;99.90
19232;DHT22;9750;48.730;10.294;2022-11-20T12:30:17;7.70;99.90
19232;DHT22;9750;48.730;10.294;2022-11-20T12:33:15;7.70;99.90
19232;DHT22;9750;48.730;10.294;2022-11-20T12:35:58;7.70;99.90
19232;DHT22;9750;48.730;10.294;2022-11-20T12:38:48;7.80;99.90
19232;DHT22;9750;48.730;10.294;2022-11-20T12:41:27;7.80;99.90
19232;DHT22;9750;48.730;10.294;2022-11-20T12:44:23;7.70;99.90
19232;DHT22;9750;48.730;10.294;2022-11-20T12:47:17;7.70;99.90
19232;DHT22;9750;48.730;10.294;2022-11-20T12:49:54;7.70;99.90
19232;DHT22;9750;48.730;10.294;2022-11-20T12:52:38;7.80;99.90
19232;DHT22;9750;48.730;10.294;2022-11-20T12:55:31;7.80;99.90
19232;DHT22;9750;48.730;10.294;2022-11-20T12:58:08;7.90;99.90
19232;DHT22;9750;48.730;10.294;2022-11-20T13:00:41;8.00;99.90
19232;DHT22;9750;48.730;10.294;2022-11-20T13:03:31;8.00;99.90
19232;DHT22;9750;48.730;10.294;2022-11-20T13:06:10;8.00;99.90
19232;DHT22;9750;48.730;10.294;2022-11-20T13:08:41;8.00;99.90
19232;DHT22;9750;48.730;10.294;2022-11-20T13:11:16;8.00;99.90
19232;DHT22;9750;48.730;10.294;2022-11-20T13:14:11;8.00;99.90
19232;DHT22;9750;48.730;10.294;2022-11-20T13:16:47;8.10;99.90
19232;DHT22;9750;48.730;10.294;2022-11-20T13:19:17;8.00;99.90
19232;DHT22;9750;48.730;10.294;2022-11-20T13:21:46;7.90;99.90
19232;DHT22;9750;48.730;10.294;2022-11-20T13:24:25;7.90;99.90
19232;DHT22;9750;48.730;10.294;2022-11-20T13:27:05;7.90;99.90
19232;DHT22;9750;48.730;10.294;2022-11-20T13:29:33;7.90;99.90
19232;DHT22;9750;48.730;10.294;2022-11-20T13:32:05;7.90;99.90
19232;DHT22;9750;48.730;10.294;2022-11-20T13:34:34;7.90;99.90
19232;DHT22;9750;48.730;10.294;2022-11-20T13:37:02;7.90;99.90
19232;DHT22;9750;48.730;10.294;2022-11-20T13:39:33;7.80;99.90
19232;DHT22;9750;48.730;10.294;2022-11-20T13:42:02;7.70;99.90
19232;DHT22;9750;48.730;10.294;2022-11-20T13:44:35;7.60;99.90
19232;DHT22;9750;48.730;10.294;2022-11-20T13:47:04;7.60;99.90
19232;DHT22;9750;48.730;10.294;2022-11-20T13:49:45;7.50;99.90
19232;DHT22;9750;48.730;10.294;2022-11-20T13:52:31;7.50;99.90
19232;DHT22;9750;48.730;10.294;2022-11-20T13:55:14;7.40;99.90
19232;DHT22;9750;48.730;10.294;2022-11-20T13:58:05;7.50;99.90
19232;DHT22;9750;48.730;10.294;2022-11-20T14:00:44;7.60;99.90
19232;DHT22;9750;48.730;10.294;2022-11-20T14:03:19;7.70;99.90
19232;DHT22;9750;48.730;10.294;2022-11-20T14:06:02;7.80;99.90
19232;DHT22;9750;48.730;10.294;2022-11-20T14:08:34;7.80;99.90
19232;DHT22;9750;48.730;10.294;2022-11-20T14:11:11;7.80;99.90
19232;DHT22;9750;48.730;10.294;2022-11-20T14:13:57;7.80;99.90
19232;DHT22;9750;48.730;10.294;2022-11-20T14:16:26;7.80;99.90
19232;DHT22;9750;48.730;10.294;2022-11-20T14:18:54;7.90;99.90
19232;DHT22;9750;48.730;10.294;2022-11-20T14:21:24;7.90;99.90
19232;DHT22;9750;48.730;10.294;2022-11-20T14:24:02;7.90;99.90
19232;DHT22;9750;48.730;10.294;2022-11-20T14:26:32;7.90;99.90
19232;DHT22;9750;48.730;10.294;2022-11-20T14:29:01;7.80;99.90
19232;DHT22;9750;48.730;10.294;2022-11-20T14:31:28;7.80;99.90
19232;DHT22;9750;48.730;10.294;2022-11-20T14:33:56;7.70;99.90
19232;DHT22;9750;48.730;10.294;2022-11-20T14:36:25;7.70;99.90
19232;DHT22;9750;48.730;10.294;2022-11-20T14:38:53;7.70;99.90
19232;DHT22;9750;48.730;10.294;2022-11-20T14:41:22;7.70;99.90
19232;DHT22;9750;48.730;10.294;2022-11-20T14:43:56;7.70;99.90
19232;DHT22;9750;48.730;10.294;2022-11-20T14:46:24;7.70;99.90
19232;DHT22;9750;48.730;10.294;2022-11-20T14:48:54;7.70;99.90
19232;DHT22;9750;48.730;10.294;2022-11-20T14:51:31;7.70;99.90
19232;DHT22;9750;48.730;10.294;2022-11-20T14:54:09;7.60;99.90
19232;DHT22;9750;48.730;10.294;2022-11-20T14:56:36;7.70;99.90
19232;DHT22;9750;48.730;10.294;2022-11-20T14:59:06;7.60;99.90
19232;DHT22;9750;48.730;10.294;2022-11-20T15:01:35;7.60;99.90
19232;DHT22;9750;48.730;10.294;2022-11-20T15:04:06;7.60;99.90
19232;DHT22;9750;48.730;10.294;2022-11-20T15:06:35;7.60;99.90
19232;DHT22;9750;48.730;10.294;2022-11-20T15:09:03;7.60;99.90
19232;DHT22;9750;48.730;10.294;2022-11-20T15:11:33;7.60;99.90
19232;DHT22;9750;48.730;10.294;2022-11-20T15:14:06;7.50;99.90
19232;DHT22;9750;48.730;10.294;2022-11-20T15:16:33;7.40;99.90
19232;DHT22;9750;48.730;10.294;2022-11-20T15:19:02;7.40;99.90
19232;DHT22;9750;48.730;10.294;2022-11-20T15:21:36;7.40;99.90
19232;DHT22;9750;48.730;10.294;2022-11-20T15:24:08;7.40;99.90
19232;DHT22;9750;48.730;10.294;2022-11-20T15:26:37;7.40;99.90
19232;DHT22;9750;48.730;10.294;2022-11-20T15:29:08;7.40;99.90
19232;DHT22;9750;48.730;10.294;2022-11-20T15:31:37;7.40;99.90
19232;DHT22;9750;48.730;10.294;2022-11-20T15:34:09;7.30;99.90
19232;DHT22;9750;48.730;10.294;2022-11-20T15:36:37;7.30;99.90
19232;DHT22;9750;48.730;10.294;2022-11-20T15:39:04;7.30;99.90
19232;DHT22;9750;48.730;10.294;2022-11-20T15:41:32;7.30;99.90
19232;DHT22;9750;48.730;10.294;2022-11-20T15:44:00;7.30;99.90
19232;DHT22;9750;48.730;10.294;2022-11-20T15:46:31;7.30;99.90
19232;DHT22;9750;48.730;10.294;2022-11-20T15:52:43;7.20;99.90
19232;DHT22;9750;48.730;10.294;2022-11-20T15:55:11;7.20;99.90
19232;DHT22;9750;48.730;10.294;2022-11-20T15:57:38;7.20;99.90
19232;DHT22;9750;48.730;10.294;2022-11-20T16:00:08;7.10;99.90
19232;DHT22;9750;48.730;10.294;2022-11-20T16:02:37;7.10;99.90
19232;DHT22;9750;48.730;10.294;2022-11-20T16:05:10;7.10;99.90
19232;DHT22;9750;48.730;10.294;2022-11-20T16:07:38;7.10;99.90
19232;DHT22;9750;48.730;10.294;2022-11-20T16:10:05;7.00;99.90
19232;DHT22;9750;48.730;10.294;2022-11-20T16:12:33;7.00;99.90
19232;DHT22;9750;48.730;10.294;2022-11-20T16:15:17;7.00;99.90
19232;DHT22;9750;48.730;10.294;2022-11-20T16:18:04;7.00;99.90
19232;DHT22;9750;48.730;10.294;2022-11-20T16:20:31;7.00;99.90
19232;DHT22;9750;48.730;10.294;2022-11-20T16:22:59;7.00;99.90
19232;DHT22;9750;48.730;10.294;2022-11-20T16:25:27;6.90;99.90
19232;DHT22;9750;48.730;10.294;2022-11-20T16:27:54;6.90;99.90
19232;DHT22;9750;48.730;10.294;2022-11-20T16:30:22;6.80;99.90